createdAt,value
2023-03-16T00:00:09.748Z,71.13
2023-03-16T00:01:11.969Z,71.22
2023-03-16T00:02:14.048Z,71.17
2023-03-16T00:03:21.926Z,71.71
2023-03-16T00:04:23.970Z,71.86
2023-03-16T00:05:26.069Z,71.91
2023-03-16T00:06:28.199Z,71.77
2023-03-16T00:07:30.684Z,71.78
2023-03-16T00:08:32.743Z,71.83
2023-03-16T00:09:34.832Z,71.73
2023-03-16T00:10:36.714Z,71.72
2023-03-16T00:11:38.509Z,71.92
2023-03-16T00:12:40.457Z,71.95
2023-03-16T00:13:43.058Z,72.00
2023-03-16T00:14:47.531Z,72.00
2023-03-16T00:16:07.875Z,72.35
2023-03-16T00:17:20.620Z,71.88
2023-03-16T00:18:27.365Z,72.77
2023-03-16T00:19:29.290Z,72.97
2023-03-16T00:20:31.216Z,72.53
2023-03-16T00:21:35.291Z,72.82
2023-03-16T00:22:37.094Z,72.48
2023-03-16T00:23:38.946Z,72.74
2023-03-16T00:24:43.413Z,73.15
2023-03-16T00:25:45.369Z,73.11
2023-03-16T00:26:48.257Z,73.00
2023-03-16T00:27:50.765Z,73.43
2023-03-16T00:28:54.657Z,73.17
2023-03-16T00:29:57.285Z,73.47
2023-03-16T00:30:59.435Z,73.60
2023-03-16T00:32:01.526Z,73.54
2023-03-16T00:33:05.104Z,73.36
2023-03-16T00:34:07.079Z,73.41
2023-03-16T00:35:09.801Z,73.57
2023-03-16T00:36:12.153Z,73.52
2023-03-16T00:37:16.931Z,73.57
2023-03-16T00:38:20.367Z,73.76
2023-03-16T00:39:22.938Z,73.26
2023-03-16T00:40:25.113Z,73.56
2023-03-16T00:41:27.070Z,73.70
2023-03-16T00:42:30.639Z,73.82
2023-03-16T00:43:41.031Z,73.68
2023-03-16T00:44:43.447Z,73.55
2023-03-16T00:45:45.713Z,73.62
2023-03-16T00:46:47.756Z,73.91
2023-03-16T00:47:49.616Z,73.66
2023-03-16T00:48:51.610Z,73.51
2023-03-16T00:49:53.729Z,73.91
2023-03-16T00:50:55.710Z,73.77
2023-03-16T00:51:57.516Z,73.75
2023-03-16T00:52:59.418Z,74.07
2023-03-16T00:54:01.270Z,73.94
2023-03-16T00:55:05.061Z,73.77
2023-03-16T00:56:07.346Z,73.88
2023-03-16T00:57:10.080Z,74.08
2023-03-16T00:58:15.074Z,73.55
2023-03-16T00:59:17.217Z,73.67
2023-03-16T01:00:21.005Z,74.00
2023-03-16T01:01:24.509Z,74.00
2023-03-16T01:02:26.569Z,73.47
2023-03-16T01:03:28.645Z,73.83
2023-03-16T01:04:30.786Z,73.89
2023-03-16T01:05:33.645Z,73.89
2023-03-16T01:06:35.554Z,73.47
2023-03-16T01:07:37.500Z,73.81
2023-03-16T01:08:40.587Z,73.87
2023-03-16T01:09:43.532Z,74.10
2023-03-16T01:10:45.605Z,74.25
2023-03-16T01:11:53.917Z,74.20
2023-03-16T01:12:56.351Z,73.87
2023-03-16T01:13:58.261Z,73.82
2023-03-16T01:15:00.798Z,73.83
2023-03-16T01:16:04.663Z,73.94
2023-03-16T01:17:08.827Z,74.03
2023-03-16T01:18:10.838Z,74.06
2023-03-16T01:19:13.371Z,73.90
2023-03-16T01:20:19.472Z,74.04
2023-03-16T01:21:22.099Z,73.85
2023-03-16T01:22:24.208Z,74.11
2023-03-16T01:23:26.108Z,74.11
2023-03-16T01:24:28.924Z,74.11
2023-03-16T01:25:30.981Z,73.95
2023-03-16T01:26:32.966Z,73.80
2023-03-16T01:27:34.988Z,74.05
2023-03-16T01:28:37.281Z,73.62
2023-03-16T01:29:40.518Z,74.32
2023-03-16T01:30:44.272Z,73.90
2023-03-16T01:31:46.137Z,73.93
2023-03-16T01:32:48.439Z,73.74
2023-03-16T01:33:50.401Z,73.46
2023-03-16T01:34:52.429Z,73.29
2023-03-16T01:35:55.154Z,73.52
2023-03-16T01:36:57.060Z,73.29
2023-03-16T01:37:58.977Z,73.32
2023-03-16T01:39:01.203Z,73.25
2023-03-16T01:40:06.360Z,73.22
2023-03-16T01:41:08.647Z,73.05
2023-03-16T01:42:10.984Z,73.03
2023-03-16T01:43:14.146Z,72.86
2023-03-16T01:44:28.344Z,72.89
2023-03-16T01:46:04.587Z,72.56
2023-03-16T01:47:06.993Z,72.60
2023-03-16T01:48:09.372Z,72.64
2023-03-16T01:49:23.959Z,72.61
2023-03-16T01:50:27.746Z,72.67
2023-03-16T01:51:44.076Z,72.32
2023-03-16T01:52:46.057Z,72.20
2023-03-16T01:53:53.245Z,72.38
2023-03-16T01:55:00.812Z,72.15
2023-03-16T01:56:08.489Z,71.87
2023-03-16T01:57:12.405Z,71.95
2023-03-16T01:58:14.809Z,71.87
2023-03-16T01:59:21.277Z,71.81
2023-03-16T02:00:31.576Z,71.69
2023-03-16T02:01:33.613Z,71.47
2023-03-16T02:02:36.359Z,71.34
2023-03-16T02:03:39.207Z,71.44
2023-03-16T02:04:59.620Z,71.21
2023-03-16T02:06:05.667Z,71.13
2023-03-16T02:07:09.151Z,71.17
2023-03-16T02:08:12.638Z,70.92
2023-03-16T02:09:16.555Z,70.94
2023-03-16T02:10:20.678Z,70.95
2023-03-16T02:11:23.604Z,71.00
2023-03-16T02:12:26.011Z,70.65
2023-03-16T02:13:29.747Z,70.92
2023-03-16T02:14:31.838Z,70.91
2023-03-16T02:15:36.261Z,70.49
2023-03-16T02:16:39.395Z,70.94
2023-03-16T02:17:44.126Z,70.40
2023-03-16T02:18:51.009Z,70.08
2023-03-16T02:20:17.269Z,69.94
2023-03-16T02:21:30.622Z,70.09
2023-03-16T02:22:36.065Z,69.67
2023-03-16T02:23:38.190Z,69.63
2023-03-16T02:24:40.452Z,69.51
2023-03-16T02:26:20.104Z,69.45
2023-03-16T02:27:35.284Z,69.09
2023-03-16T02:28:55.941Z,69.29
2023-03-16T02:30:07.588Z,69.16
2023-03-16T02:31:09.575Z,69.16
2023-03-16T02:32:13.058Z,68.96
2023-03-16T02:33:17.691Z,68.99
2023-03-16T02:34:19.838Z,69.18
2023-03-16T02:35:22.701Z,68.97
2023-03-16T02:36:24.746Z,69.05
2023-03-16T02:37:27.141Z,68.68
2023-03-16T02:38:29.178Z,68.71
2023-03-16T02:39:31.075Z,68.80
2023-03-16T02:40:34.958Z,68.33
2023-03-16T02:41:37.184Z,68.85
2023-03-16T02:42:39.372Z,68.66
2023-03-16T02:43:47.245Z,68.51
2023-03-16T02:44:55.539Z,68.49
2023-03-16T02:46:00.459Z,68.45
2023-03-16T02:47:36.113Z,68.37
2023-03-16T02:49:06.555Z,68.52
2023-03-16T02:50:11.487Z,68.40
2023-03-16T02:51:13.439Z,68.75
2023-03-16T02:52:15.446Z,68.25
2023-03-16T02:53:17.807Z,68.39
2023-03-16T02:54:20.205Z,68.41
2023-03-16T02:55:22.144Z,68.20
2023-03-16T02:56:24.539Z,68.29
2023-03-16T02:57:26.419Z,68.39
2023-03-16T02:58:28.437Z,68.05
2023-03-16T02:59:30.367Z,68.40
2023-03-16T03:00:32.393Z,68.29
2023-03-16T03:01:35.187Z,68.05
2023-03-16T03:02:37.075Z,68.12
2023-03-16T03:03:39.029Z,68.00
2023-03-16T03:04:41.002Z,68.09
2023-03-16T03:05:43.046Z,68.07
2023-03-16T03:06:44.965Z,68.22
2023-03-16T03:07:47.045Z,68.07
2023-03-16T03:08:48.934Z,67.73
2023-03-16T03:09:53.814Z,67.76
2023-03-16T03:10:55.705Z,67.88
2023-03-16T03:11:57.733Z,67.56
2023-03-16T03:13:00.032Z,67.76
2023-03-16T03:14:01.835Z,67.79
2023-03-16T03:15:04.294Z,67.76
2023-03-16T03:16:06.456Z,67.68
2023-03-16T03:17:09.623Z,67.86
2023-03-16T03:18:11.824Z,67.64
2023-03-16T03:19:13.989Z,67.99
2023-03-16T03:20:17.925Z,67.91
2023-03-16T03:21:20.179Z,68.08
2023-03-16T03:22:22.062Z,67.79
2023-03-16T03:23:24.078Z,67.82
2023-03-16T03:24:31.443Z,67.95
2023-03-16T03:25:36.303Z,68.00
2023-03-16T03:26:38.386Z,67.92
2023-03-16T03:27:44.415Z,67.88
2023-03-16T03:28:46.594Z,68.00
2023-03-16T03:29:48.824Z,67.78
2023-03-16T03:30:51.699Z,67.83
2023-03-16T03:31:53.708Z,67.87
2023-03-16T03:32:55.584Z,67.99
2023-03-16T03:33:57.484Z,67.84
2023-03-16T03:34:59.440Z,67.50
2023-03-16T03:36:02.391Z,67.68
2023-03-16T03:37:04.320Z,67.79
2023-03-16T03:38:08.200Z,67.60
2023-03-16T03:39:10.159Z,67.81
2023-03-16T03:40:14.365Z,67.87
2023-03-16T03:41:16.078Z,67.79
2023-03-16T03:42:18.176Z,67.59
2023-03-16T03:43:21.184Z,67.40
2023-03-16T03:44:24.174Z,67.51
2023-03-16T03:45:26.375Z,67.65
2023-03-16T03:46:28.493Z,67.69
2023-03-16T03:47:30.968Z,67.75
2023-03-16T03:48:33.788Z,67.74
2023-03-16T03:49:35.640Z,67.63
2023-03-16T03:50:38.858Z,68.21
2023-03-16T03:51:41.401Z,67.76
2023-03-16T03:52:43.292Z,67.94
2023-03-16T03:53:45.145Z,67.60
2023-03-16T03:54:47.027Z,67.39
2023-03-16T03:55:49.994Z,67.00
2023-03-16T03:56:52.528Z,67.33
2023-03-16T03:57:54.505Z,67.28
2023-03-16T03:58:56.292Z,67.16
2023-03-16T03:59:58.170Z,67.19
2023-03-16T04:01:00.004Z,66.90
2023-03-16T04:02:02.006Z,66.91
2023-03-16T04:03:04.342Z,66.80
2023-03-16T04:04:06.315Z,66.39
2023-03-16T04:05:09.016Z,65.85
2023-03-16T04:06:11.252Z,65.96
2023-03-16T04:07:13.165Z,66.08
2023-03-16T04:08:15.138Z,65.60
2023-03-16T04:09:17.069Z,65.68
2023-03-16T04:10:19.186Z,65.01
2023-03-16T04:11:21.585Z,65.00
2023-03-16T04:12:23.593Z,63.79
2023-03-16T04:13:25.578Z,63.55
2023-03-16T04:14:28.872Z,63.41
2023-03-16T04:15:33.119Z,63.21
2023-03-16T04:16:35.099Z,63.08
2023-03-16T04:17:37.009Z,62.57
2023-03-16T04:18:38.913Z,62.60
2023-03-16T04:19:40.833Z,62.70
2023-03-16T04:20:42.791Z,62.50
2023-03-16T04:21:44.644Z,62.54
2023-03-16T04:22:47.585Z,62.44
2023-03-16T04:23:54.403Z,62.46
2023-03-16T04:24:56.438Z,62.77
2023-03-16T04:25:58.329Z,62.65
2023-03-16T04:27:02.912Z,62.54
2023-03-16T04:28:05.164Z,62.25
2023-03-16T04:29:07.126Z,62.33
2023-03-16T04:30:12.628Z,62.65
2023-03-16T04:31:14.675Z,62.08
2023-03-16T04:32:16.751Z,62.00
2023-03-16T04:33:18.619Z,62.50
2023-03-16T04:34:25.220Z,62.64
2023-03-16T04:35:27.549Z,62.71
2023-03-16T04:36:29.395Z,62.55
2023-03-16T04:37:31.409Z,62.42
2023-03-16T04:38:34.400Z,62.85
2023-03-16T04:39:36.346Z,62.64
2023-03-16T04:40:38.452Z,62.76
2023-03-16T04:41:40.320Z,62.58
2023-03-16T04:42:42.537Z,62.40
2023-03-16T04:43:44.856Z,62.61
2023-03-16T04:44:46.675Z,62.63
2023-03-16T04:45:48.919Z,62.59
2023-03-16T04:46:50.801Z,62.86
2023-03-16T04:47:52.885Z,62.88
2023-03-16T04:48:58.494Z,62.56
2023-03-16T04:50:04.303Z,62.23
2023-03-16T04:51:06.418Z,62.33
2023-03-16T04:52:09.045Z,62.09
2023-03-16T04:53:11.103Z,61.67
2023-03-16T04:54:13.046Z,61.49
2023-03-16T04:55:14.911Z,61.24
2023-03-16T04:56:18.466Z,61.13
2023-03-16T04:57:20.301Z,60.93
2023-03-16T04:58:22.899Z,61.20
2023-03-16T04:59:24.762Z,61.36
2023-03-16T05:00:27.078Z,61.48
2023-03-16T05:01:29.247Z,61.33
2023-03-16T05:02:32.271Z,61.05
2023-03-16T05:03:34.934Z,60.91
2023-03-16T05:04:37.329Z,60.59
2023-03-16T05:05:40.014Z,60.85
2023-03-16T05:06:42.209Z,60.55
2023-03-16T05:07:45.111Z,60.79
2023-03-16T05:08:46.965Z,60.40
2023-03-16T05:09:48.888Z,60.43
2023-03-16T05:10:51.126Z,60.20
2023-03-16T05:11:53.061Z,60.05
2023-03-16T05:12:54.897Z,59.87
2023-03-16T05:13:56.900Z,60.25
2023-03-16T05:14:58.793Z,60.02
2023-03-16T05:16:01.994Z,59.93
2023-03-16T05:17:04.902Z,59.83
2023-03-16T05:18:06.689Z,60.14
2023-03-16T05:19:08.590Z,59.98
2023-03-16T05:20:15.839Z,59.99
2023-03-16T05:21:18.142Z,60.08
2023-03-16T05:22:20.172Z,59.46
2023-03-16T05:23:23.364Z,59.66
2023-03-16T05:24:25.346Z,58.86
2023-03-16T05:25:27.233Z,59.07
2023-03-16T05:26:29.087Z,58.79
2023-03-16T05:27:31.144Z,59.03
2023-03-16T05:28:33.155Z,58.49
2023-03-16T05:29:35.096Z,59.24
2023-03-16T05:30:37.079Z,59.02
2023-03-16T05:31:39.090Z,58.91
2023-03-16T05:32:41.142Z,58.94
2023-03-16T05:33:43.055Z,58.49
2023-03-16T05:34:45.012Z,58.45
2023-03-16T05:35:46.857Z,58.42
2023-03-16T05:36:48.902Z,57.97
2023-03-16T05:37:50.873Z,57.97
2023-03-16T05:38:52.836Z,56.98
2023-03-16T05:39:54.785Z,57.60
2023-03-16T05:41:02.229Z,56.46
2023-03-16T05:42:06.127Z,56.98
2023-03-16T05:43:08.429Z,57.01
2023-03-16T05:44:10.872Z,56.78
2023-03-16T05:45:14.939Z,57.12
2023-03-16T05:46:18.459Z,57.68
2023-03-16T05:47:22.329Z,56.64
2023-03-16T05:48:27.290Z,56.69
2023-03-16T05:49:29.211Z,56.75
2023-03-16T05:50:31.104Z,56.82
2023-03-16T05:51:33.043Z,56.93
2023-03-16T05:52:35.646Z,56.66
2023-03-16T05:53:37.464Z,56.02
2023-03-16T05:54:40.062Z,56.35
2023-03-16T05:55:41.842Z,55.77
2023-03-16T05:56:43.802Z,55.87
2023-03-16T05:57:45.944Z,55.63
2023-03-16T05:58:47.768Z,55.73
2023-03-16T05:59:50.658Z,55.95
2023-03-16T06:00:52.520Z,55.98
2023-03-16T06:01:54.349Z,55.70
2023-03-16T06:02:56.262Z,55.25
2023-03-16T06:03:58.208Z,55.37
2023-03-16T06:05:00.337Z,55.66
2023-03-16T06:06:02.250Z,55.66
2023-03-16T06:07:04.721Z,55.57
2023-03-16T06:08:06.700Z,55.65
2023-03-16T06:09:09.535Z,55.35
2023-03-16T06:10:12.593Z,55.45
2023-03-16T06:11:16.425Z,55.52
2023-03-16T06:12:18.389Z,55.00
2023-03-16T06:13:20.259Z,55.23
2023-03-16T06:14:23.317Z,55.25
2023-03-16T06:15:26.672Z,54.84
2023-03-16T06:16:29.208Z,54.95
2023-03-16T06:17:31.069Z,55.17
2023-03-16T06:18:35.635Z,54.71
2023-03-16T06:19:37.686Z,55.32
2023-03-16T06:20:39.860Z,55.26
2023-03-16T06:21:41.768Z,55.04
2023-03-16T06:22:44.253Z,55.16
2023-03-16T06:23:46.139Z,55.37
2023-03-16T06:24:48.110Z,55.09
2023-03-16T06:25:51.203Z,54.73
2023-03-16T06:26:53.427Z,54.81
2023-03-16T06:27:55.558Z,54.84
2023-03-16T06:28:57.367Z,54.95
2023-03-16T06:29:59.738Z,54.40
2023-03-16T06:31:01.816Z,54.88
2023-03-16T06:32:04.150Z,54.92
2023-03-16T06:33:06.252Z,54.68
2023-03-16T06:34:08.213Z,54.27
2023-03-16T06:35:10.540Z,54.75
2023-03-16T06:36:12.526Z,54.59
2023-03-16T06:37:14.640Z,55.15
2023-03-16T06:38:17.288Z,54.83
2023-03-16T06:39:19.118Z,54.26
2023-03-16T06:40:21.172Z,54.39
2023-03-16T06:41:23.002Z,54.58
2023-03-16T06:42:24.885Z,54.21
2023-03-16T06:43:26.797Z,53.53
2023-03-16T06:44:28.730Z,53.58
2023-03-16T06:45:30.786Z,53.59
2023-03-16T06:46:33.952Z,53.48
2023-03-16T06:47:35.798Z,52.98
2023-03-16T06:48:37.661Z,52.59
2023-03-16T06:49:39.742Z,52.93
2023-03-16T06:50:41.548Z,53.35
2023-03-16T06:51:43.432Z,52.98
2023-03-16T06:52:45.415Z,53.04
2023-03-16T06:53:47.432Z,52.56
2023-03-16T06:54:49.435Z,52.62
2023-03-16T06:55:51.515Z,53.51
2023-03-16T06:56:53.410Z,52.99
2023-03-16T06:57:55.847Z,53.25
2023-03-16T06:58:58.295Z,53.21
2023-03-16T07:00:00.148Z,53.16
2023-03-16T07:01:03.819Z,53.13
2023-03-16T07:02:07.039Z,52.34
2023-03-16T07:03:08.985Z,52.73
2023-03-16T07:04:12.868Z,52.45
2023-03-16T07:05:14.932Z,52.50
2023-03-16T07:06:17.182Z,52.58
2023-03-16T07:07:19.620Z,52.29
2023-03-16T07:08:21.898Z,52.26
2023-03-16T07:09:24.174Z,52.43
2023-03-16T07:10:25.978Z,52.35
2023-03-16T07:11:27.951Z,52.20
2023-03-16T07:12:29.821Z,52.12
2023-03-16T07:13:31.769Z,52.66
2023-03-16T07:14:33.782Z,52.60
2023-03-16T07:15:36.039Z,52.42
2023-03-16T07:16:38.086Z,52.39
2023-03-16T07:17:40.669Z,52.53
2023-03-16T07:18:44.578Z,52.57
2023-03-16T07:19:46.476Z,52.86
2023-03-16T07:20:48.366Z,52.99
2023-03-16T07:21:50.243Z,52.79
2023-03-16T07:22:52.515Z,52.30
2023-03-16T07:23:55.956Z,52.19
2023-03-16T07:24:58.216Z,52.40
2023-03-16T07:26:00.949Z,52.16
2023-03-16T07:27:02.739Z,51.48
2023-03-16T07:28:04.901Z,51.70
2023-03-16T07:29:07.311Z,52.05
2023-03-16T07:30:12.331Z,51.68
2023-03-16T07:31:15.013Z,51.90
2023-03-16T07:32:16.945Z,51.78
2023-03-16T07:33:18.903Z,51.61
2023-03-16T07:34:21.444Z,51.89
2023-03-16T07:35:24.331Z,51.56
2023-03-16T07:36:26.581Z,51.81
2023-03-16T07:37:28.450Z,52.05
2023-03-16T07:38:32.523Z,51.75
2023-03-16T07:39:34.437Z,51.54
2023-03-16T07:40:36.216Z,51.50
2023-03-16T07:41:38.168Z,51.19
2023-03-16T07:42:40.466Z,51.01
2023-03-16T07:43:42.449Z,50.92
2023-03-16T07:44:44.308Z,50.93
2023-03-16T07:45:52.572Z,51.47
2023-03-16T07:46:54.561Z,51.13
2023-03-16T07:47:56.575Z,51.54
2023-03-16T07:48:58.493Z,51.01
2023-03-16T07:50:01.467Z,51.21
2023-03-16T07:51:03.409Z,51.17
2023-03-16T07:52:05.441Z,51.40
2023-03-16T07:53:07.618Z,51.07
2023-03-16T07:54:09.558Z,51.29
2023-03-16T07:55:12.095Z,51.24
2023-03-16T07:56:14.652Z,51.14
2023-03-16T07:57:16.487Z,51.47
2023-03-16T07:58:18.476Z,51.27
2023-03-16T07:59:21.560Z,51.23
2023-03-16T08:00:24.889Z,51.48
2023-03-16T08:01:26.692Z,51.12
2023-03-16T08:02:28.630Z,51.40
2023-03-16T08:03:32.195Z,51.06
2023-03-16T08:04:34.561Z,51.89
2023-03-16T08:05:36.549Z,51.73
2023-03-16T08:06:38.554Z,51.29
2023-03-16T08:07:41.417Z,51.65
2023-03-16T08:08:43.386Z,51.06
2023-03-16T08:09:45.456Z,51.01
2023-03-16T08:10:49.260Z,50.72
2023-03-16T08:11:51.171Z,49.87
2023-03-16T08:12:53.051Z,50.62
2023-03-16T08:13:56.629Z,50.20
2023-03-16T08:14:58.613Z,50.44
2023-03-16T08:16:02.259Z,50.47
2023-03-16T08:17:05.935Z,50.44
2023-03-16T08:18:08.042Z,50.49
2023-03-16T08:19:11.703Z,49.70
2023-03-16T08:20:15.085Z,49.72
2023-03-16T08:21:18.120Z,49.60
2023-03-16T08:22:21.084Z,50.26
2023-03-16T08:23:24.437Z,50.50
2023-03-16T08:24:27.184Z,50.66
2023-03-16T08:25:29.196Z,50.36
2023-03-16T08:26:31.035Z,50.05
2023-03-16T08:27:33.437Z,49.68
2023-03-16T08:28:36.667Z,48.98
2023-03-16T08:29:38.545Z,49.29
2023-03-16T08:30:51.811Z,49.50
2023-03-16T08:31:57.793Z,49.18
2023-03-16T08:33:01.667Z,48.96
2023-03-16T08:34:04.258Z,49.18
2023-03-16T08:35:07.982Z,49.53
2023-03-16T08:36:11.965Z,49.34
2023-03-16T08:37:14.882Z,49.54
2023-03-16T08:38:16.697Z,49.52
2023-03-16T08:39:18.871Z,49.30
2023-03-16T08:40:22.699Z,49.42
2023-03-16T08:41:24.756Z,49.74
2023-03-16T08:42:28.961Z,49.36
2023-03-16T08:43:30.956Z,49.47
2023-03-16T08:44:33.189Z,49.52
2023-03-16T08:45:35.125Z,50.03
2023-03-16T08:46:37.134Z,49.75
2023-03-16T08:47:40.602Z,50.48
2023-03-16T08:48:43.292Z,50.14
2023-03-16T08:49:45.149Z,50.29
2023-03-16T08:50:47.232Z,50.14
2023-03-16T08:51:49.693Z,50.57
2023-03-16T08:52:51.535Z,49.78
2023-03-16T08:53:54.245Z,50.43
2023-03-16T08:55:03.478Z,50.43
2023-03-16T08:56:12.508Z,50.51
2023-03-16T08:57:14.361Z,50.09
2023-03-16T08:58:16.149Z,50.27
2023-03-16T08:59:29.069Z,50.51
2023-03-16T09:00:31.616Z,50.34
2023-03-16T09:01:34.269Z,50.47
2023-03-16T09:02:38.793Z,50.85
2023-03-16T09:03:42.592Z,50.58
2023-03-16T09:04:44.611Z,50.05
2023-03-16T09:05:47.052Z,50.29
2023-03-16T09:07:05.685Z,50.64
2023-03-16T09:08:10.104Z,50.65
2023-03-16T09:09:11.890Z,51.17
2023-03-16T09:10:16.506Z,51.16
2023-03-16T09:11:19.457Z,51.46
2023-03-16T09:12:22.432Z,51.21
2023-03-16T09:13:24.659Z,51.22
2023-03-16T09:14:26.605Z,51.45
2023-03-16T09:15:29.365Z,51.83
2023-03-16T09:16:31.272Z,51.72
2023-03-16T09:17:33.628Z,50.97
2023-03-16T09:18:36.393Z,50.73
2023-03-16T09:19:50.394Z,51.05
2023-03-16T09:21:00.148Z,50.60
2023-03-16T09:22:02.141Z,50.60
2023-03-16T09:23:04.454Z,50.05
2023-03-16T09:24:08.976Z,49.76
2023-03-16T09:25:11.381Z,49.80
2023-03-16T09:26:15.414Z,49.83
2023-03-16T09:27:17.677Z,49.90
2023-03-16T09:28:22.029Z,49.49
2023-03-16T09:29:24.647Z,49.86
2023-03-16T09:30:28.443Z,49.82
2023-03-16T09:31:30.728Z,49.61
2023-03-16T09:32:33.783Z,49.64
2023-03-16T09:33:37.093Z,50.13
2023-03-16T09:34:39.364Z,50.07
2023-03-16T09:35:41.514Z,49.72
2023-03-16T09:36:43.391Z,49.80
2023-03-16T09:38:01.076Z,49.65
2023-03-16T09:39:06.574Z,50.25
2023-03-16T09:40:19.316Z,51.01
2023-03-16T09:41:36.488Z,51.18
2023-03-16T09:42:48.508Z,50.50
2023-03-16T09:43:50.257Z,50.88
2023-03-16T09:45:21.409Z,51.30
2023-03-16T09:46:36.866Z,50.87
2023-03-16T09:47:40.762Z,51.23
2023-03-16T09:48:42.545Z,50.92
2023-03-16T09:49:48.008Z,50.45
2023-03-16T09:50:51.259Z,50.02
2023-03-16T09:52:05.452Z,50.76
2023-03-16T09:53:19.230Z,49.77
2023-03-16T09:54:33.394Z,49.93
2023-03-16T09:55:38.027Z,50.00
2023-03-16T09:56:42.642Z,49.71
2023-03-16T09:57:46.576Z,49.36
2023-03-16T09:58:48.496Z,49.71
2023-03-16T09:59:50.293Z,49.54
2023-03-16T10:01:24.602Z,49.42
2023-03-16T10:02:48.602Z,50.22
2023-03-16T10:04:18.427Z,50.28
2023-03-16T10:05:24.620Z,50.08
2023-03-16T10:06:27.445Z,50.30
2023-03-16T10:08:09.088Z,49.87
2023-03-16T10:09:11.388Z,50.51
2023-03-16T10:10:23.962Z,50.38
2023-03-16T10:11:34.328Z,50.57
2023-03-16T10:12:42.104Z,50.86
2023-03-16T10:14:02.781Z,50.69
2023-03-16T10:15:15.277Z,50.54
2023-03-16T10:16:21.548Z,50.73
2023-03-16T10:17:33.355Z,50.81
2023-03-16T10:19:19.833Z,51.12
2023-03-16T10:20:24.144Z,51.31
2023-03-16T10:21:26.089Z,51.32
2023-03-16T10:22:36.805Z,51.73
2023-03-16T10:23:40.952Z,51.39
2023-03-16T10:24:47.639Z,50.83
2023-03-16T10:25:51.959Z,50.96
2023-03-16T10:27:00.457Z,51.42
2023-03-16T10:28:02.521Z,51.71
2023-03-16T10:29:10.628Z,51.46
2023-03-16T10:30:24.683Z,51.76
2023-03-16T10:31:28.477Z,51.74
2023-03-16T10:32:35.734Z,51.72
2023-03-16T10:33:38.385Z,51.09
2023-03-16T10:34:40.881Z,51.33
2023-03-16T10:35:57.999Z,51.74
2023-03-16T10:37:03.123Z,51.37
2023-03-16T10:38:07.812Z,50.66
2023-03-16T10:39:13.253Z,50.46
2023-03-16T10:40:16.374Z,50.80
2023-03-16T10:41:18.276Z,50.74
2023-03-16T10:42:21.479Z,51.09
2023-03-16T10:43:24.485Z,51.09
2023-03-16T10:44:28.718Z,51.17
2023-03-16T10:45:34.462Z,50.75
2023-03-16T10:46:43.013Z,50.35
2023-03-16T10:47:44.932Z,50.66
2023-03-16T10:49:01.547Z,51.38
2023-03-16T10:50:16.902Z,51.20
2023-03-16T10:51:26.208Z,50.95
2023-03-16T10:52:35.330Z,51.25
2023-03-16T10:53:42.736Z,51.31
2023-03-16T10:54:53.030Z,51.09
2023-03-16T10:56:02.161Z,50.75
2023-03-16T10:57:34.113Z,51.03
2023-03-16T10:58:43.293Z,51.08
2023-03-16T10:59:49.748Z,50.82
2023-03-16T11:00:51.993Z,50.88
2023-03-16T11:01:54.672Z,51.45
2023-03-16T11:02:59.971Z,51.27
2023-03-16T11:04:02.723Z,50.85
2023-03-16T11:05:17.828Z,51.28
2023-03-16T11:06:24.935Z,51.37
2023-03-16T11:07:27.809Z,51.13
2023-03-16T11:08:35.629Z,51.89
2023-03-16T11:09:37.444Z,51.53
2023-03-16T11:10:55.031Z,51.58
2023-03-16T11:11:58.007Z,51.28
2023-03-16T11:13:20.989Z,51.64
2023-03-16T11:14:26.012Z,51.53
2023-03-16T11:15:37.095Z,51.60
2023-03-16T11:16:57.137Z,51.90
2023-03-16T11:17:59.464Z,51.62
2023-03-16T11:19:19.009Z,51.36
2023-03-16T11:20:28.681Z,52.12
2023-03-16T11:21:51.666Z,51.45
2023-03-16T11:22:53.510Z,52.11
2023-03-16T11:23:57.101Z,51.91
2023-03-16T11:25:41.501Z,51.53
2023-03-16T11:26:45.606Z,51.93
2023-03-16T11:28:06.586Z,51.88
2023-03-16T11:29:27.668Z,51.94
2023-03-16T11:30:35.417Z,52.19
2023-03-16T11:31:54.097Z,52.12
2023-03-16T11:32:56.049Z,52.14
2023-03-16T11:33:58.141Z,52.35
2023-03-16T11:35:00.400Z,52.56
2023-03-16T11:36:29.980Z,52.51
2023-03-16T11:38:09.568Z,52.22
2023-03-16T11:39:30.814Z,52.49
2023-03-16T11:40:44.174Z,52.37
2023-03-16T11:41:54.865Z,52.52
2023-03-16T11:43:21.228Z,52.73
2023-03-16T11:44:38.777Z,52.95
2023-03-16T11:46:02.920Z,52.72
2023-03-16T11:47:16.826Z,52.71
2023-03-16T11:48:32.312Z,52.82
2023-03-16T11:49:44.633Z,53.16
2023-03-16T11:50:49.890Z,53.27
2023-03-16T11:52:03.966Z,53.28
2023-03-16T11:53:25.010Z,53.89
2023-03-16T11:54:55.701Z,53.86
2023-03-16T11:55:57.536Z,53.66
2023-03-16T11:57:27.421Z,53.63
2023-03-16T11:58:51.030Z,53.27
2023-03-16T12:00:01.480Z,53.48
2023-03-16T12:01:13.355Z,53.54
2023-03-16T12:02:33.578Z,53.47
2023-03-16T12:04:05.818Z,53.04
2023-03-16T12:05:31.236Z,52.83
2023-03-16T12:06:45.416Z,53.22
2023-03-16T12:08:13.021Z,53.57
2023-03-16T12:09:37.804Z,53.05
2023-03-16T12:11:07.944Z,53.12
2023-03-16T12:12:34.641Z,53.09
2023-03-16T12:14:12.219Z,53.49
2023-03-16T12:15:36.192Z,53.46
2023-03-16T12:16:52.139Z,53.37
2023-03-16T12:17:59.500Z,53.37
2023-03-16T12:19:12.232Z,54.05
2023-03-16T12:20:23.471Z,53.83
2023-03-16T12:21:32.434Z,54.03
2023-03-16T12:22:44.538Z,54.21
2023-03-16T12:23:56.814Z,54.11
2023-03-16T12:24:58.655Z,54.42
2023-03-16T12:26:03.658Z,54.48
2023-03-16T12:27:06.935Z,54.29
2023-03-16T12:28:39.481Z,54.47
2023-03-16T12:30:03.958Z,54.30
2023-03-16T12:31:16.324Z,54.69
2023-03-16T12:32:26.135Z,54.90
2023-03-16T12:33:46.504Z,54.95
2023-03-16T12:35:00.276Z,55.13
2023-03-16T12:36:20.286Z,55.06
2023-03-16T12:37:34.101Z,55.21
2023-03-16T12:38:50.392Z,55.14
2023-03-16T12:40:23.159Z,54.87
2023-03-16T12:41:28.213Z,54.79
2023-03-16T12:42:41.706Z,54.97
2023-03-16T12:44:10.127Z,55.21
2023-03-16T12:45:31.988Z,55.17
2023-03-16T12:46:48.082Z,55.47
2023-03-16T12:48:05.110Z,55.26
2023-03-16T12:49:09.959Z,55.42
2023-03-16T12:50:15.761Z,55.77
2023-03-16T12:51:18.590Z,55.85
2023-03-16T12:52:20.673Z,55.95
2023-03-16T12:53:40.683Z,55.44
2023-03-16T12:54:54.940Z,55.60
2023-03-16T12:55:58.212Z,55.80
2023-03-16T12:57:03.817Z,55.85
2023-03-16T12:58:08.722Z,55.58
2023-03-16T12:59:21.157Z,55.24
2023-03-16T13:00:37.747Z,55.62
2023-03-16T13:01:44.015Z,55.14
2023-03-16T13:02:53.812Z,55.21
2023-03-16T13:04:09.238Z,55.03
2023-03-16T13:05:28.766Z,55.33
2023-03-16T13:06:36.640Z,55.30
2023-03-16T13:07:47.828Z,55.32
2023-03-16T13:08:59.903Z,54.72
2023-03-16T13:10:14.843Z,54.68
2023-03-16T13:11:16.772Z,54.60
2023-03-16T13:12:37.064Z,54.71
2023-03-16T13:13:52.781Z,54.92
2023-03-16T13:14:56.028Z,54.74
2023-03-16T13:16:11.170Z,54.49
2023-03-16T13:17:16.061Z,54.45
2023-03-16T13:18:17.823Z,54.33
2023-03-16T13:19:19.755Z,54.71
2023-03-16T13:20:34.110Z,54.37
2023-03-16T13:21:42.997Z,54.08
2023-03-16T13:23:07.579Z,54.42
2023-03-16T13:24:18.801Z,54.14
2023-03-16T13:25:36.420Z,54.01
2023-03-16T13:26:50.052Z,53.95
2023-03-16T13:27:58.298Z,53.95
2023-03-16T13:29:00.739Z,54.08
2023-03-16T13:30:18.405Z,53.94
2023-03-16T13:31:29.035Z,53.89
2023-03-16T13:32:33.196Z,54.14
2023-03-16T13:33:40.868Z,54.20
2023-03-16T13:34:52.015Z,54.12
2023-03-16T13:35:57.886Z,53.84
2023-03-16T13:37:01.793Z,54.04
2023-03-16T13:38:07.458Z,53.73
2023-03-16T13:39:22.684Z,53.61
2023-03-16T13:40:27.912Z,53.78
2023-03-16T13:41:30.808Z,53.80
2023-03-16T13:42:34.073Z,54.12
2023-03-16T13:43:41.821Z,53.76
2023-03-16T13:44:44.703Z,53.78
2023-03-16T13:45:47.212Z,53.97
2023-03-16T13:46:51.069Z,53.91
2023-03-16T13:47:53.699Z,53.70
2023-03-16T13:48:58.565Z,53.97
2023-03-16T13:50:00.756Z,53.83
2023-03-16T13:51:03.297Z,54.14
2023-03-16T13:52:06.105Z,54.01
2023-03-16T13:53:25.202Z,53.51
2023-03-16T13:54:29.901Z,53.83
2023-03-16T13:55:34.794Z,53.45
2023-03-16T13:56:37.390Z,53.75
2023-03-16T13:57:42.229Z,53.85
2023-03-16T13:58:47.640Z,53.78
2023-03-16T13:59:50.358Z,54.02
2023-03-16T14:01:00.656Z,53.77
2023-03-16T14:02:03.048Z,54.05
2023-03-16T14:03:17.836Z,54.00
2023-03-16T14:04:24.095Z,53.93
2023-03-16T14:05:33.485Z,53.85
2023-03-16T14:06:35.958Z,53.98